Station Historical Data
Daily Summary for January 18, 2017 Units:  Metric    English   Both
« Previous Day
Next Day »
Daily Weekly Monthly Yearly Custom
  High: Low: Average:
Temperature: 20.4 °C 12.2 °C 16.4 °C
Dew Point: 13.8 °C 9.6 °C 11.4 °C
Humidity: 89% 52% 74%
Wind Speed: 16.7km/h 0km/h 14km/h
Wind Gust: 16.7km/h - -
Wind- - SE
Pressure: 1021.9 hPa 1018.5 hPa -
Precipitation: 0 mm    
Historical Graphs
 
 
Tabular Data for January 18, 2017
Time Temperature Dew Point Pressure Wind Wind Speed Wind Gust Humidity Rainfall Rate (Hourly) Conditions
00:00 17.2 °C 13.7 °C 1020.2 hPa ENE 16.7 km/h   80% 0 mm
00:05 17.1 °C 13.6 °C 1020.2 hPa NW 16.7 km/h 16.7 km/h 80% 0 mm
00:10 17 °C 13.7 °C 1020.2 hPa NW 16.7 km/h   81% 0 mm
00:15 16.9 °C 13.6 °C 1020.2 hPa NW 16.7 km/h   81% 0 mm
00:20 16.9 °C 13.8 °C 1019.9 hPa NNW 16.7 km/h   82% 0 mm
00:25 16.9 °C 13.8 °C 1020.2 hPa NNW 16.7 km/h   82% 0 mm
00:30 16.8 °C 13.5 °C 1020.2 hPa NNW 16.7 km/h   81% 0 mm
00:36 16.6 °C 13.5 °C 1020.2 hPa NNW 16.7 km/h   82% 0 mm
00:41 16.5 °C 13.6 °C 1019.9 hPa NNW 16.7 km/h   83% 0 mm
00:46 16.4 °C 13.5 °C 1019.9 hPa NNW 16.7 km/h   83% 0 mm
00:51 16.3 °C 13.4 °C 1019.9 hPa NNW 16.7 km/h   83% 0 mm
00:56 16.2 °C 13.5 °C 1019.9 hPa NNW 16.7 km/h   84% 0 mm
01:01 16.1 °C 13.4 °C 1019.9 hPa NNW 16.7 km/h   84% 0 mm
01:06 16.1 °C 13.4 °C 1019.9 hPa NNW 16.7 km/h   84% 0 mm
01:11 16.1 °C 13.3 °C 1019.9 hPa NNW 16.7 km/h   84% 0 mm
01:16 16.1 °C 13.3 °C 1019.9 hPa NNW 16.7 km/h   84% 0 mm
01:21 16.1 °C 13.6 °C 1019.5 hPa NNE 16.7 km/h 16.7 km/h 85% 0 mm
01:26 16.1 °C 13.6 °C 1019.5 hPa NNE 16.7 km/h   85% 0 mm
01:31 16.2 °C 13.7 °C 1019.5 hPa NNE 16.7 km/h   85% 0 mm
01:36 16.3 °C 13.8 °C 1019.5 hPa NNE 16.7 km/h   85% 0 mm
01:41 15.8 °C 13.1 °C 1019.5 hPa NNE 16.7 km/h   84% 0 mm
01:46 15.8 °C 13.1 °C 1019.5 hPa NNE 16.7 km/h   84% 0 mm
01:51 15.8 °C 13.1 °C 1019.5 hPa North 16.7 km/h   84% 0 mm
01:56 15.8 °C 13.1 °C 1019.5 hPa North 16.7 km/h   84% 0 mm
02:01 15.8 °C 13.1 °C 1019.5 hPa North 16.7 km/h   84% 0 mm
02:06 15.8 °C 13.1 °C 1019.5 hPa North 16.7 km/h   84% 0 mm
02:12 15.8 °C 13.1 °C 1019.9 hPa North 16.7 km/h   84% 0 mm
02:17 15.8 °C 13.1 °C 1019.9 hPa North 16.7 km/h   84% 0 mm
02:22 15.8 °C 13.1 °C 1019.9 hPa North 16.7 km/h   84% 0 mm
02:27 15.8 °C 13.1 °C 1019.9 hPa North 16.7 km/h   84% 0 mm
02:32 15.8 °C 13.1 °C 1019.5 hPa North 16.7 km/h   84% 0 mm
02:37 15.8 °C 13.1 °C 1019.5 hPa North 16.7 km/h   84% 0 mm
02:42 15.8 °C 13.1 °C 1019.9 hPa North 16.7 km/h   84% 0 mm
02:47 15.8 °C 13.1 °C 1019.5 hPa North 16.7 km/h   84% 0 mm
02:52 15.8 °C 13.1 °C 1019.5 hPa North 16.7 km/h   84% 0 mm
02:57 15.8 °C 13.1 °C 1019.5 hPa North 16.7 km/h   84% 0 mm
03:02 15.8 °C 13.1 °C 1019.5 hPa North 16.7 km/h   84% 0 mm
03:07 15.8 °C 13.1 °C 1019.5 hPa North 16.7 km/h   84% 0 mm
03:12 15.8 °C 13.1 °C 1019.2 hPa North 16.7 km/h   84% 0 mm
03:18 15.8 °C 13.1 °C 1019.2 hPa North 16.7 km/h   84% 0 mm
08:30 15.8 °C 13.1 °C 1020.9 hPa Calm     84% 0 mm CLR
08:36 15.8 °C 13.1 °C 1020.9 hPa North 3.7 km/h   84% 0 mm CLR
08:41 15.8 °C 13.1 °C 1021.2 hPa North 3.7 km/h   84% 0 mm CLR
08:46 15.8 °C 13.1 °C 1021.2 hPa North 3.7 km/h   84% 0 mm CLR
08:51 15.8 °C 13.1 °C 1021.2 hPa North 3.7 km/h   84% 0 mm CLR
08:56 15.8 °C 13.1 °C 1021.2 hPa North 3.7 km/h   84% 0 mm CLR
09:01 15.8 °C 13.1 °C 1021.2 hPa North 3.7 km/h   84% 0 mm OVC
09:06 15.8 °C 13.1 °C 1021.2 hPa North 3.7 km/h   84% 0 mm OVC
09:11 15.8 °C 13.1 °C 1021.2 hPa North 3.7 km/h   84% 0 mm OVC
09:16 15.8 °C 13.1 °C 1021.2 hPa North 3.7 km/h   84% 0 mm OVC
09:21 15.8 °C 13.1 °C 1021.2 hPa North 3.7 km/h   84% 0 mm OVC
09:26 15.8 °C 13.1 °C 1021.6 hPa North 3.7 km/h   84% 0 mm OVC
09:31 15.8 °C 13.1 °C 1021.6 hPa North 3.7 km/h   84% 0 mm OVC
09:36 15.8 °C 13.1 °C 1021.6 hPa North 3.7 km/h   84% 0 mm OVC
09:41 15.8 °C 13.1 °C 1021.6 hPa North 3.7 km/h   84% 0 mm OVC
09:46 15.8 °C 13.1 °C 1021.6 hPa North 3.7 km/h   84% 0 mm OVC
09:51 15.8 °C 13.1 °C 1021.9 hPa North 3.7 km/h   84% 0 mm OVC
09:57 15.8 °C 13.1 °C 1021.9 hPa North 3.7 km/h   84% 0 mm OVC
10:02 15.2 °C 13.4 °C 1021.9 hPa WSW 3.7 km/h 3.7 km/h 89% 0 mm OVC
10:07 15.3 °C 13.3 °C 1021.9 hPa West 5.6 km/h 5.6 km/h 88% 0 mm OVC
10:12 15.3 °C 13.2 °C 1021.9 hPa East 8.2 km/h 8.2 km/h 87% 0 mm OVC
10:17 15.6 °C 13.6 °C 1021.9 hPa NW 8.2 km/h   88% 0 mm OVC
10:22 15.9 °C 13.4 °C 1021.6 hPa West 8.2 km/h 8.2 km/h 85% 0 mm OVC
10:28 16.3 °C 13.2 °C 1021.6 hPa South 9.8 km/h 9.8 km/h 82% 0 mm OVC
10:33 16.5 °C 13.2 °C 1021.9 hPa SSW 9.8 km/h 9.8 km/h 81% 0 mm OVC
10:38 16.7 °C 12.8 °C 1021.9 hPa ESE 14.8 km/h 14.8 km/h 78% 0 mm OVC
10:43 16.8 °C 13.1 °C 1021.6 hPa WNW 14.8 km/h 14.8 km/h 79% 0 mm OVC
10:48 17.1 °C 13 °C 1021.6 hPa WNW 14.8 km/h 14.8 km/h 77% 0 mm OVC
10:53 17 °C 12.7 °C 1021.6 hPa SE 14.8 km/h 14.8 km/h 76% 0 mm OVC
11:00 17 °C 12.7 °C 1021.6 hPa West 14.8 km/h   76% 0 mm OVC
11:05 17 °C 12.9 °C 1021.6 hPa SW 14.8 km/h 14.8 km/h 77% 0 mm OVC
11:10 17 °C 12.7 °C 1021.6 hPa ESE 14.8 km/h 14.8 km/h 76% 0 mm OVC
11:15 17 °C 12.9 °C 1021.6 hPa WNW 14.8 km/h 14.8 km/h 77% 0 mm OVC
11:20 17.1 °C 12.7 °C 1021.6 hPa East 14.8 km/h 14.8 km/h 75% 0 mm OVC
11:25 17.3 °C 12.7 °C 1021.6 hPa North 14.8 km/h 14.8 km/h 74% 0 mm OVC
11:30 17.6 °C 12.4 °C 1021.2 hPa West 14.8 km/h   72% 0 mm OVC
11:35 17.7 °C 12.3 °C 1021.2 hPa NW 14.8 km/h   71% 0 mm OVC
11:40 17.6 °C 12.1 °C 1021.6 hPa NNE 14.8 km/h 14.8 km/h 70% 0 mm OVC
11:45 17.6 °C 12.1 °C 1021.2 hPa SSE 14.8 km/h 14.8 km/h 70% 0 mm OVC
11:50 17.3 °C 11.8 °C 1021.2 hPa NNE 14.8 km/h   70% 0 mm OVC
11:52 17.3 °C 12 °C 1021.2 hPa NNW 14.8 km/h 14.8 km/h 71% 0 mm OVC
11:57 17.4 °C 12.1 °C 1021.2 hPa West 14.8 km/h 14.8 km/h 71% 0 mm OVC
12:02 17.4 °C 12.3 °C 1021.2 hPa North 14.8 km/h 14.8 km/h 72% 0 mm OVC
12:07 17.2 °C 12.3 °C 1020.9 hPa South 14.8 km/h 14.8 km/h 73% 0 mm OVC
12:12 17.2 °C 12.7 °C 1020.5 hPa NW 14.8 km/h 14.8 km/h 75% 0 mm OVC
12:17 17.2 °C 12.7 °C 1020.5 hPa NNE 14.8 km/h   75% 0 mm OVC
12:22 17.1 °C 12.6 °C 1020.5 hPa NE 14.8 km/h 14.8 km/h 75% 0 mm OVC
12:27 17.2 °C 12.3 °C 1020.9 hPa NE 14.8 km/h 14.8 km/h 73% 0 mm OVC
12:33 17.3 °C 12.4 °C 1020.9 hPa NE 14.8 km/h 14.8 km/h 73% 0 mm OVC
12:38 17.7 °C 12.6 °C 1020.5 hPa WNW 14.8 km/h   72% 0 mm OVC
12:43 18 °C 12.7 °C 1020.5 hPa NW 14.8 km/h 14.8 km/h 71% 0 mm OVC
12:48 17.9 °C 12.4 °C 1020.2 hPa WNW 14.8 km/h 14.8 km/h 70% 0 mm OVC
12:53 17.9 °C 11.9 °C 1020.2 hPa SW 14.8 km/h 14.8 km/h 68% 0 mm OVC
12:58 17.9 °C 12.1 °C 1019.9 hPa WNW 14.8 km/h   69% 0 mm OVC
13:03 18 °C 11.8 °C 1019.9 hPa WNW 14.8 km/h 14.8 km/h 67% 0 mm OVC
13:08 17.9 °C 10.5 °C 1019.9 hPa East 14.8 km/h 14.8 km/h 62% 0 mm OVC
13:13 17.9 °C 11.1 °C 1019.9 hPa NNE 14.8 km/h   64% 0 mm OVC
13:18 18.3 °C 11.3 °C 1019.9 hPa East 14.8 km/h 14.8 km/h 64% 0 mm OVC
13:23 18.3 °C 11.1 °C 1019.9 hPa SE 14.8 km/h   63% 0 mm OVC
13:29 18.6 °C 11.6 °C 1019.9 hPa North 14.8 km/h 14.8 km/h 64% 0 mm OVC
13:34 19.1 °C 11.2 °C 1019.5 hPa SSW 14.8 km/h 14.8 km/h 60% 0 mm OVC
13:39 19.1 °C 10.8 °C 1019.5 hPa SE 14.8 km/h 14.8 km/h 59% 0 mm OVC
13:44 19.1 °C 11.1 °C 1019.2 hPa SSW 14.8 km/h 14.8 km/h 60% 0 mm OVC
13:49 19.1 °C 10.9 °C 1019.2 hPa North 14.8 km/h 14.8 km/h 59% 0 mm OVC
13:54 19.2 °C 10.5 °C 1019.2 hPa NNE 14.8 km/h 14.8 km/h 57% 0 mm OVC
13:59 19.2 °C 10.5 °C 1019.2 hPa ESE 14.8 km/h 14.8 km/h 57% 0 mm OVC
14:04 18.9 °C 10.9 °C 1018.8 hPa ESE 14.8 km/h   60% 0 mm OVC
14:09 19.2 °C 11 °C 1018.8 hPa ESE 14.8 km/h 14.8 km/h 59% 0 mm OVC
14:14 19.3 °C 10.6 °C 1018.8 hPa SSE 14.8 km/h 14.8 km/h 57% 0 mm OVC
14:20 19.4 °C 10.9 °C 1018.8 hPa NW 14.8 km/h   58% 0 mm OVC
14:25 19.7 °C 10.4 °C 1018.8 hPa East 14.8 km/h 14.8 km/h 55% 0 mm OVC
14:30 19.6 °C 10.6 °C 1018.8 hPa ESE 14.8 km/h 14.8 km/h 56% 0 mm OVC
14:35 19.6 °C 10.6 °C 1018.8 hPa NNW 14.8 km/h 14.8 km/h 56% 0 mm OVC
14:40 19.6 °C 10.3 °C 1018.8 hPa East 14.8 km/h 14.8 km/h 55% 0 mm OVC
14:45 19.7 °C 10.4 °C 1018.8 hPa NE 14.8 km/h   55% 0 mm OVC
14:50 19.9 °C 10.6 °C 1018.8 hPa SSE 14.8 km/h 14.8 km/h 55% 0 mm OVC
14:55 19.8 °C 10.3 °C 1018.8 hPa NNW 14.8 km/h   54% 0 mm OVC
15:00 19.9 °C 10.6 °C 1018.8 hPa NNW 14.8 km/h 14.8 km/h 55% 0 mm OVC
15:05 19.9 °C 10.3 °C 1018.8 hPa NNW 14.8 km/h 14.8 km/h 54% 0 mm OVC
15:10 19.9 °C 10.3 °C 1018.8 hPa SE 14.8 km/h 14.8 km/h 54% 0 mm OVC
15:16 19.9 °C 10.6 °C 1018.8 hPa WNW 14.8 km/h 14.8 km/h 55% 0 mm OVC
15:21 19.9 °C 10.6 °C 1018.8 hPa WSW 14.8 km/h 14.8 km/h 55% 0 mm OVC
15:26 19.9 °C 10.3 °C 1018.8 hPa SW 14.8 km/h 14.8 km/h 54% 0 mm OVC
15:31 19.9 °C 10.3 °C 1018.8 hPa North 14.8 km/h 14.8 km/h 54% 0 mm OVC
15:36 19.9 °C 10.6 °C 1018.8 hPa WSW 14.8 km/h 14.8 km/h 55% 0 mm OVC
15:41 19.9 °C 10.6 °C 1018.5 hPa WNW 14.8 km/h   55% 0 mm OVC
15:46 20.1 °C 10.5 °C 1018.5 hPa NNW 14.8 km/h 14.8 km/h 54% 0 mm OVC
15:51 20.3 °C 10.4 °C 1018.5 hPa North 14.8 km/h 14.8 km/h 53% 0 mm OVC
15:56 20.4 °C 10.2 °C 1018.8 hPa NE 14.8 km/h 14.8 km/h 52% 0 mm OVC
16:02 20.2 °C 10.3 °C 1018.8 hPa WNW 14.8 km/h 14.8 km/h 53% 0 mm CLR
16:07 20.1 °C 10.2 °C 1018.8 hPa ESE 14.8 km/h 14.8 km/h 53% 0 mm CLR
16:17 19.9 °C 10.3 °C 1018.8 hPa East 14.8 km/h 14.8 km/h 54% 0 mm CLR
16:22 19.8 °C 10.5 °C 1018.8 hPa West 14.8 km/h   55% 0 mm CLR
16:27 19.8 °C 10.5 °C 1018.5 hPa North 14.8 km/h   55% 0 mm CLR
16:32 19.7 °C 10.7 °C 1018.5 hPa WNW 14.8 km/h   56% 0 mm CLR
16:37 19.5 °C 10.8 °C 1018.5 hPa West 14.8 km/h 14.8 km/h 57% 0 mm CLR
16:42 19.4 °C 10.4 °C 1018.8 hPa West 14.8 km/h   56% 0 mm CLR
16:47 19.4 °C 10.4 °C 1018.8 hPa NNE 14.8 km/h 14.8 km/h 56% 0 mm CLR
16:53 19.4 °C 10.4 °C 1018.8 hPa West 14.8 km/h   56% 0 mm CLR
16:58 19.3 °C 10.6 °C 1018.5 hPa WNW 14.8 km/h   57% 0 mm CLR
17:03 19.2 °C 10.4 °C 1018.5 hPa NNW 14.8 km/h 14.8 km/h 57% 0 mm CLR
17:08 19 °C 10.6 °C 1018.5 hPa NNW 14.8 km/h   58% 0 mm CLR
17:13 18.9 °C 10.4 °C 1018.5 hPa West 14.8 km/h 14.8 km/h 58% 0 mm CLR
17:18 18.8 °C 10.6 °C 1018.5 hPa NNW 14.8 km/h   59% 0 mm CLR
17:23 18.7 °C 10.5 °C 1018.5 hPa NNW 14.8 km/h   59% 0 mm CLR
17:28 18.5 °C 10.6 °C 1018.5 hPa NNW 14.8 km/h   60% 0 mm CLR
17:33 18.3 °C 10.4 °C 1018.5 hPa NNW 14.8 km/h   60% 0 mm CLR
17:38 18.2 °C 10.5 °C 1018.8 hPa NNW 14.8 km/h   61% 0 mm CLR
17:43 17.9 °C 10.6 °C 1018.8 hPa NNW 14.8 km/h   62% 0 mm CLR
17:49 17.8 °C 10.4 °C 1018.5 hPa NNW 14.8 km/h   62% 0 mm CLR
17:54 17.6 °C 10.5 °C 1018.8 hPa NNW 14.8 km/h   63% 0 mm CLR
17:59 17.4 °C 10.3 °C 1018.8 hPa NNW 14.8 km/h   63% 0 mm CLR
18:04 17.2 °C 10.3 °C 1018.8 hPa NNW 14.8 km/h   64% 0 mm
18:09 17 °C 10.4 °C 1018.5 hPa NNW 14.8 km/h   65% 0 mm
18:14 16.8 °C 10.4 °C 1018.8 hPa NNW 14.8 km/h   66% 0 mm
18:19 16.6 °C 10.4 °C 1018.8 hPa NNW 14.8 km/h   67% 0 mm
18:24 16.4 °C 10.2 °C 1018.8 hPa NNW 14.8 km/h   67% 0 mm
18:29 16.2 °C 10.3 °C 1018.8 hPa NNW 14.8 km/h   68% 0 mm
18:35 16.1 °C 10.2 °C 1019.2 hPa NNW 14.8 km/h   68% 0 mm
18:40 15.9 °C 10.3 °C 1019.2 hPa NNW 14.8 km/h   69% 0 mm
18:45 15.8 °C 10.1 °C 1019.2 hPa NNW 14.8 km/h   69% 0 mm
18:50 15.6 °C 10.2 °C 1019.2 hPa NNW 14.8 km/h   70% 0 mm
18:55 15.6 °C 10.1 °C 1019.2 hPa NNW 14.8 km/h   70% 0 mm
19:00 15.4 °C 9.9 °C 1019.2 hPa NNW 14.8 km/h   70% 0 mm
19:05 15.2 °C 10.2 °C 1019.5 hPa NNW 14.8 km/h   72% 0 mm
19:10 15.1 °C 10.1 °C 1019.5 hPa NNW 14.8 km/h   72% 0 mm
19:15 14.9 °C 10.2 °C 1019.5 hPa NNW 14.8 km/h   73% 0 mm
19:20 14.8 °C 10 °C 1019.9 hPa NNW 14.8 km/h   73% 0 mm
19:26 14.7 °C 10.1 °C 1019.9 hPa NNW 14.8 km/h   74% 0 mm
19:31 14.7 °C 10.1 °C 1019.9 hPa NNW 14.8 km/h   74% 0 mm
19:36 14.6 °C 10.2 °C 1019.5 hPa NNW 14.8 km/h   75% 0 mm
19:41 14.6 °C 10.2 °C 1019.5 hPa NNE 14.8 km/h   75% 0 mm
19:46 14.6 °C 10 °C 1019.5 hPa North 14.8 km/h   74% 0 mm
19:51 14.5 °C 10.1 °C 1019.5 hPa NNE 14.8 km/h   75% 0 mm
19:56 14.4 °C 10 °C 1019.5 hPa NNE 14.8 km/h   75% 0 mm
20:01 14.2 °C 10.1 °C 1019.5 hPa North 14.8 km/h   76% 0 mm
20:06 14.2 °C 10 °C 1019.5 hPa NNE 14.8 km/h   76% 0 mm
20:12 14.2 °C 10.1 °C 1019.9 hPa NNE 14.8 km/h   76% 0 mm
20:17 14.2 °C 10.1 °C 1019.9 hPa NNE 14.8 km/h   76% 0 mm
20:22 14.1 °C 9.9 °C 1019.9 hPa NNE 14.8 km/h   76% 0 mm
20:27 14.1 °C 9.9 °C 1019.5 hPa NNE 14.8 km/h   76% 0 mm
20:32 13.9 °C 10 °C 1019.5 hPa NNE 14.8 km/h   77% 0 mm
20:37 13.9 °C 9.9 °C 1019.5 hPa NNE 14.8 km/h   77% 0 mm
20:42 13.8 °C 9.9 °C 1019.5 hPa North 14.8 km/h   77% 0 mm
20:47 13.8 °C 10.1 °C 1019.9 hPa NNE 14.8 km/h   78% 0 mm
20:52 13.8 °C 10 °C 1019.5 hPa North 14.8 km/h   78% 0 mm
20:57 13.8 °C 10 °C 1019.5 hPa NNE 14.8 km/h   78% 0 mm
21:02 13.7 °C 9.9 °C 1019.5 hPa NNE 14.8 km/h   78% 0 mm
21:08 13.6 °C 9.8 °C 1019.5 hPa NNE 14.8 km/h   78% 0 mm
21:13 13.6 °C 10.1 °C 1019.5 hPa NNE 14.8 km/h   79% 0 mm
21:18 13.5 °C 9.9 °C 1019.5 hPa NNE 14.8 km/h   79% 0 mm
21:23 13.4 °C 9.9 °C 1019.9 hPa NNE 14.8 km/h   79% 0 mm
21:28 13.4 °C 10 °C 1019.5 hPa NNE 14.8 km/h   80% 0 mm
21:33 13.3 °C 9.9 °C 1019.5 hPa NNE 14.8 km/h   80% 0 mm
21:38 13.3 °C 9.9 °C 1019.5 hPa NNE 14.8 km/h   80% 0 mm
21:43 13.3 °C 9.9 °C 1019.5 hPa NNE 14.8 km/h   80% 0 mm
21:48 13.3 °C 10.2 °C 1019.5 hPa NNE 14.8 km/h   81% 0 mm
21:53 13.4 °C 10 °C 1019.5 hPa NNE 14.8 km/h   80% 0 mm
22:01 13.3 °C 10.2 °C 1019.5 hPa NNE 14.8 km/h   81% 0 mm
22:06 13.3 °C 10.2 °C 1019.5 hPa NNE 14.8 km/h   81% 0 mm
22:11 13.3 °C 10.2 °C 1019.5 hPa NNE 14.8 km/h   81% 0 mm
22:16 13.3 °C 10.1 °C 1019.9 hPa NNE 14.8 km/h   81% 0 mm
22:21 13.2 °C 10.1 °C 1019.5 hPa North 14.8 km/h   81% 0 mm
22:26 13.2 °C 10 °C 1019.5 hPa NNE 14.8 km/h   81% 0 mm
22:31 13.1 °C 10.1 °C 1019.5 hPa NNE 14.8 km/h   82% 0 mm
22:36 13.1 °C 10.1 °C 1019.5 hPa NNE 14.8 km/h   82% 0 mm
22:41 13 °C 10 °C 1019.5 hPa NNE 14.8 km/h   82% 0 mm
22:46 12.9 °C 9.9 °C 1019.5 hPa NNE 14.8 km/h   82% 0 mm
22:52 12.9 °C 10.1 °C 1019.5 hPa North 14.8 km/h   83% 0 mm
22:57 12.8 °C 10 °C 1019.5 hPa NNE 14.8 km/h   83% 0 mm
23:02 12.8 °C 9.9 °C 1019.5 hPa NNE 14.8 km/h   83% 0 mm
23:07 12.7 °C 9.9 °C 1019.5 hPa NNE 14.8 km/h   83% 0 mm
23:12 12.7 °C 9.9 °C 1019.5 hPa North 14.8 km/h   83% 0 mm
23:17 12.7 °C 9.9 °C 1019.9 hPa NNE 14.8 km/h   83% 0 mm
23:22 12.7 °C 9.8 °C 1019.9 hPa North 14.8 km/h   83% 0 mm
23:27 12.6 °C 9.7 °C 1019.5 hPa NNE 14.8 km/h   83% 0 mm
23:32 12.4 °C 9.6 °C 1019.9 hPa NNE 14.8 km/h   83% 0 mm
23:37 12.3 °C 9.7 °C 1019.9 hPa NNE 14.8 km/h   84% 0 mm
23:43 12.3 °C 9.7 °C 1019.9 hPa NNE 14.8 km/h   84% 0 mm
23:48 12.3 °C 9.7 °C 1019.5 hPa NNE 14.8 km/h   84% 0 mm
23:53 12.2 °C 9.6 °C 1019.5 hPa NNE 14.8 km/h   84% 0 mm
23:58 12.2 °C 9.8 °C 1019.5 hPa NNE 14.8 km/h   85% 0 mm
Piedmont Bend
Compliments of Weather Underground - 2 mb